sensor_id;sensor_type;location;lat;lon;timestamp;P1;durP1;ratioP1;P2;durP2;ratioP2
67146;SDS011;54061;52.036;5.558;2022-09-09T00:01:34;2.28;;;0.80;;
67146;SDS011;54061;52.036;5.558;2022-09-09T00:04:41;2.35;;;1.10;;
67146;SDS011;54061;52.036;5.558;2022-09-09T00:09:53;3.97;;;1.30;;
67146;SDS011;54061;52.036;5.558;2022-09-09T00:15:14;4.50;;;1.80;;
67146;SDS011;54061;52.036;5.558;2022-09-09T00:20:20;3.20;;;2.10;;
67146;SDS011;54061;52.036;5.558;2022-09-09T00:23:10;6.65;;;2.55;;
67146;SDS011;54061;52.036;5.558;2022-09-09T00:28:24;6.00;;;2.47;;
67146;SDS011;54061;52.036;5.558;2022-09-09T00:30:52;6.30;;;2.35;;
67146;SDS011;54061;52.036;5.558;2022-09-09T00:33:19;3.72;;;2.50;;
67146;SDS011;54061;52.036;5.558;2022-09-09T00:35:48;4.72;;;2.55;;
67146;SDS011;54061;52.036;5.558;2022-09-09T00:38:16;3.70;;;2.20;;
67146;SDS011;54061;52.036;5.558;2022-09-09T00:43:42;3.15;;;2.10;;
67146;SDS011;54061;52.036;5.558;2022-09-09T00:46:30;3.53;;;1.83;;
67146;SDS011;54061;52.036;5.558;2022-09-09T00:49:32;1.77;;;1.63;;
67146;SDS011;54061;52.036;5.558;2022-09-09T00:52:21;2.13;;;1.67;;
67146;SDS011;54061;52.036;5.558;2022-09-09T00:55:05;3.67;;;1.88;;
67146;SDS011;54061;52.036;5.558;2022-09-09T00:57:36;4.10;;;1.70;;
67146;SDS011;54061;52.036;5.558;2022-09-09T01:10:53;3.15;;;1.45;;
67146;SDS011;54061;52.036;5.558;2022-09-09T01:13:24;3.75;;;1.58;;
67146;SDS011;54061;52.036;5.558;2022-09-09T01:15:52;2.78;;;1.83;;
67146;SDS011;54061;52.036;5.558;2022-09-09T01:18:22;2.97;;;1.70;;
67146;SDS011;54061;52.036;5.558;2022-09-09T01:21:03;4.35;;;1.50;;
67146;SDS011;54061;52.036;5.558;2022-09-09T01:26:45;2.53;;;1.30;;
67146;SDS011;54061;52.036;5.558;2022-09-09T01:29:12;4.60;;;2.00;;
67146;SDS011;54061;52.036;5.558;2022-09-09T01:31:53;3.65;;;1.55;;
67146;SDS011;54061;52.036;5.558;2022-09-09T01:34:22;4.13;;;1.83;;
67146;SDS011;54061;52.036;5.558;2022-09-09T01:37:09;2.38;;;1.40;;
67146;SDS011;54061;52.036;5.558;2022-09-09T01:39:37;4.50;;;1.40;;
67146;SDS011;54061;52.036;5.558;2022-09-09T01:42:07;3.83;;;1.77;;
67146;SDS011;54061;52.036;5.558;2022-09-09T01:44:36;2.30;;;1.60;;
67146;SDS011;54061;52.036;5.558;2022-09-09T01:47:03;4.93;;;1.60;;
67146;SDS011;54061;52.036;5.558;2022-09-09T01:49:30;4.88;;;2.60;;
67146;SDS011;54061;52.036;5.558;2022-09-09T01:51:57;7.35;;;2.97;;
67146;SDS011;54061;52.036;5.558;2022-09-09T01:54:24;3.83;;;2.63;;
67146;SDS011;54061;52.036;5.558;2022-09-09T01:57:39;8.73;;;2.50;;
67146;SDS011;54061;52.036;5.558;2022-09-09T02:05:17;2.65;;;2.13;;
67146;SDS011;54061;52.036;5.558;2022-09-09T02:07:49;4.18;;;2.47;;
67146;SDS011;54061;52.036;5.558;2022-09-09T02:10:21;4.05;;;2.30;;
67146;SDS011;54061;52.036;5.558;2022-09-09T02:12:56;4.30;;;2.33;;
67146;SDS011;54061;52.036;5.558;2022-09-09T02:15:44;5.88;;;2.63;;
67146;SDS011;54061;52.036;5.558;2022-09-09T02:18:35;3.83;;;2.30;;
67146;SDS011;54061;52.036;5.558;2022-09-09T02:21:02;4.03;;;2.30;;
67146;SDS011;54061;52.036;5.558;2022-09-09T02:23:28;4.65;;;2.38;;
67146;SDS011;54061;52.036;5.558;2022-09-09T02:25:54;8.07;;;2.40;;
67146;SDS011;54061;52.036;5.558;2022-09-09T02:28:22;3.90;;;2.40;;
67146;SDS011;54061;52.036;5.558;2022-09-09T02:30:51;5.95;;;2.00;;
67146;SDS011;54061;52.036;5.558;2022-09-09T02:33:22;4.53;;;2.60;;
67146;SDS011;54061;52.036;5.558;2022-09-09T02:35:51;7.28;;;2.65;;
67146;SDS011;54061;52.036;5.558;2022-09-09T02:38:21;8.23;;;2.70;;
67146;SDS011;54061;52.036;5.558;2022-09-09T02:40:51;9.15;;;2.88;;
67146;SDS011;54061;52.036;5.558;2022-09-09T02:43:17;4.75;;;2.20;;
67146;SDS011;54061;52.036;5.558;2022-09-09T02:45:47;5.93;;;2.47;;
67146;SDS011;54061;52.036;5.558;2022-09-09T02:48:33;4.30;;;2.17;;
67146;SDS011;54061;52.036;5.558;2022-09-09T02:51:54;6.25;;;2.38;;
67146;SDS011;54061;52.036;5.558;2022-09-09T02:56:55;3.03;;;2.30;;
67146;SDS011;54061;52.036;5.558;2022-09-09T02:59:36;3.78;;;2.28;;
67146;SDS011;54061;52.036;5.558;2022-09-09T03:02:02;3.72;;;1.98;;
67146;SDS011;54061;52.036;5.558;2022-09-09T03:04:28;4.97;;;1.88;;
67146;SDS011;54061;52.036;5.558;2022-09-09T03:06:55;4.10;;;2.40;;
67146;SDS011;54061;52.036;5.558;2022-09-09T03:09:20;4.28;;;2.13;;
67146;SDS011;54061;52.036;5.558;2022-09-09T03:11:46;5.60;;;2.42;;
67146;SDS011;54061;52.036;5.558;2022-09-09T03:14:11;2.47;;;2.28;;
67146;SDS011;54061;52.036;5.558;2022-09-09T03:16:37;2.65;;;2.05;;
67146;SDS011;54061;52.036;5.558;2022-09-09T03:19:03;4.93;;;2.33;;
67146;SDS011;54061;52.036;5.558;2022-09-09T03:21:28;4.78;;;2.65;;
67146;SDS011;54061;52.036;5.558;2022-09-09T03:23:54;4.18;;;2.33;;
67146;SDS011;54061;52.036;5.558;2022-09-09T03:26:19;3.58;;;2.55;;
67146;SDS011;54061;52.036;5.558;2022-09-09T03:28:45;9.82;;;2.42;;
67146;SDS011;54061;52.036;5.558;2022-09-09T03:31:10;5.22;;;2.08;;
67146;SDS011;54061;52.036;5.558;2022-09-09T03:33:37;6.72;;;2.30;;
67146;SDS011;54061;52.036;5.558;2022-09-09T03:36:03;4.70;;;2.33;;
67146;SDS011;54061;52.036;5.558;2022-09-09T03:38:29;5.07;;;2.17;;
67146;SDS011;54061;52.036;5.558;2022-09-09T03:40:55;3.60;;;2.33;;
67146;SDS011;54061;52.036;5.558;2022-09-09T03:43:22;10.52;;;2.70;;
67146;SDS011;54061;52.036;5.558;2022-09-09T03:45:49;9.27;;;2.67;;
67146;SDS011;54061;52.036;5.558;2022-09-09T03:48:15;4.43;;;2.45;;
67146;SDS011;54061;52.036;5.558;2022-09-09T03:50:45;4.97;;;2.53;;
67146;SDS011;54061;52.036;5.558;2022-09-09T03:53:15;7.43;;;2.65;;
67146;SDS011;54061;52.036;5.558;2022-09-09T03:55:43;11.23;;;2.25;;
67146;SDS011;54061;52.036;5.558;2022-09-09T03:58:10;6.35;;;2.70;;
67146;SDS011;54061;52.036;5.558;2022-09-09T04:00:36;4.97;;;2.50;;
67146;SDS011;54061;52.036;5.558;2022-09-09T04:03:08;6.35;;;2.60;;
67146;SDS011;54061;52.036;5.558;2022-09-09T04:05:34;7.57;;;2.60;;
67146;SDS011;54061;52.036;5.558;2022-09-09T04:08:00;6.07;;;2.90;;
67146;SDS011;54061;52.036;5.558;2022-09-09T04:10:25;3.30;;;2.50;;
67146;SDS011;54061;52.036;5.558;2022-09-09T04:12:51;8.55;;;2.70;;
67146;SDS011;54061;52.036;5.558;2022-09-09T04:15:17;8.02;;;2.60;;
67146;SDS011;54061;52.036;5.558;2022-09-09T04:17:43;6.22;;;2.80;;
67146;SDS011;54061;52.036;5.558;2022-09-09T04:20:09;3.15;;;2.55;;
67146;SDS011;54061;52.036;5.558;2022-09-09T04:22:37;6.05;;;2.63;;
67146;SDS011;54061;52.036;5.558;2022-09-09T04:25:04;7.00;;;2.20;;
67146;SDS011;54061;52.036;5.558;2022-09-09T04:27:30;3.97;;;2.40;;
67146;SDS011;54061;52.036;5.558;2022-09-09T04:29:56;6.50;;;2.83;;
67146;SDS011;54061;52.036;5.558;2022-09-09T04:32:22;6.50;;;2.72;;
67146;SDS011;54061;52.036;5.558;2022-09-09T04:34:48;4.00;;;2.45;;
67146;SDS011;54061;52.036;5.558;2022-09-09T04:37:14;5.05;;;2.35;;
67146;SDS011;54061;52.036;5.558;2022-09-09T04:39:39;4.88;;;2.78;;
67146;SDS011;54061;52.036;5.558;2022-09-09T04:42:05;9.63;;;2.50;;
67146;SDS011;54061;52.036;5.558;2022-09-09T04:44:30;7.28;;;2.75;;
67146;SDS011;54061;52.036;5.558;2022-09-09T04:46:56;6.32;;;2.38;;
67146;SDS011;54061;52.036;5.558;2022-09-09T04:49:21;5.18;;;2.40;;
67146;SDS011;54061;52.036;5.558;2022-09-09T04:51:50;4.75;;;2.70;;
67146;SDS011;54061;52.036;5.558;2022-09-09T04:54:15;4.25;;;2.40;;
67146;SDS011;54061;52.036;5.558;2022-09-09T04:56:41;6.50;;;2.10;;
67146;SDS011;54061;52.036;5.558;2022-09-09T04:59:08;4.68;;;2.65;;
67146;SDS011;54061;52.036;5.558;2022-09-09T05:01:34;7.43;;;2.28;;
67146;SDS011;54061;52.036;5.558;2022-09-09T05:04:01;6.75;;;2.53;;
67146;SDS011;54061;52.036;5.558;2022-09-09T05:06:27;11.52;;;2.63;;
67146;SDS011;54061;52.036;5.558;2022-09-09T05:08:56;9.98;;;2.83;;
67146;SDS011;54061;52.036;5.558;2022-09-09T05:11:26;7.85;;;2.45;;
67146;SDS011;54061;52.036;5.558;2022-09-09T05:13:53;3.85;;;2.53;;
67146;SDS011;54061;52.036;5.558;2022-09-09T05:16:19;6.88;;;2.55;;
67146;SDS011;54061;52.036;5.558;2022-09-09T05:18:45;6.63;;;2.53;;
67146;SDS011;54061;52.036;5.558;2022-09-09T05:21:11;4.10;;;2.50;;
67146;SDS011;54061;52.036;5.558;2022-09-09T05:23:38;6.18;;;2.80;;
67146;SDS011;54061;52.036;5.558;2022-09-09T05:26:04;13.13;;;2.65;;
67146;SDS011;54061;52.036;5.558;2022-09-09T05:28:30;7.43;;;2.70;;
67146;SDS011;54061;52.036;5.558;2022-09-09T05:30:59;9.63;;;3.00;;
67146;SDS011;54061;52.036;5.558;2022-09-09T05:33:33;9.38;;;2.53;;
67146;SDS011;54061;52.036;5.558;2022-09-09T05:36:03;7.43;;;2.70;;
67146;SDS011;54061;52.036;5.558;2022-09-09T05:38:31;8.13;;;2.73;;
67146;SDS011;54061;52.036;5.558;2022-09-09T05:40:58;11.07;;;3.15;;
67146;SDS011;54061;52.036;5.558;2022-09-09T05:43:24;10.43;;;2.80;;
67146;SDS011;54061;52.036;5.558;2022-09-09T05:46:01;10.52;;;2.30;;
67146;SDS011;54061;52.036;5.558;2022-09-09T05:48:31;10.43;;;2.30;;
67146;SDS011;54061;52.036;5.558;2022-09-09T05:50:58;7.00;;;2.58;;
67146;SDS011;54061;52.036;5.558;2022-09-09T05:53:25;9.63;;;2.75;;
67146;SDS011;54061;52.036;5.558;2022-09-09T05:56:00;8.40;;;2.20;;
67146;SDS011;54061;52.036;5.558;2022-09-09T05:58:28;14.15;;;2.70;;
67146;SDS011;54061;52.036;5.558;2022-09-09T06:01:00;6.32;;;2.33;;
67146;SDS011;54061;52.036;5.558;2022-09-09T06:03:30;12.60;;;2.92;;
67146;SDS011;54061;52.036;5.558;2022-09-09T06:05:57;12.10;;;2.42;;
67146;SDS011;54061;52.036;5.558;2022-09-09T06:08:26;15.65;;;2.95;;
67146;SDS011;54061;52.036;5.558;2022-09-09T06:10:52;10.02;;;2.33;;
67146;SDS011;54061;52.036;5.558;2022-09-09T06:13:18;8.32;;;1.92;;
67146;SDS011;54061;52.036;5.558;2022-09-09T06:15:50;9.02;;;2.00;;
67146;SDS011;54061;52.036;5.558;2022-09-09T06:18:17;10.88;;;2.05;;
67146;SDS011;54061;52.036;5.558;2022-09-09T06:20:43;8.38;;;2.10;;
67146;SDS011;54061;52.036;5.558;2022-09-09T06:23:21;8.55;;;2.00;;
67146;SDS011;54061;52.036;5.558;2022-09-09T06:25:47;8.00;;;2.10;;
67146;SDS011;54061;52.036;5.558;2022-09-09T06:28:13;8.48;;;2.15;;
67146;SDS011;54061;52.036;5.558;2022-09-09T06:30:40;11.57;;;1.88;;
67146;SDS011;54061;52.036;5.558;2022-09-09T06:33:06;11.10;;;2.20;;
67146;SDS011;54061;52.036;5.558;2022-09-09T06:35:32;9.43;;;1.98;;
67146;SDS011;54061;52.036;5.558;2022-09-09T06:37:57;3.38;;;1.33;;
67146;SDS011;54061;52.036;5.558;2022-09-09T06:40:23;6.15;;;1.67;;
67146;SDS011;54061;52.036;5.558;2022-09-09T06:42:49;10.10;;;2.22;;
67146;SDS011;54061;52.036;5.558;2022-09-09T06:45:15;11.85;;;1.85;;
67146;SDS011;54061;52.036;5.558;2022-09-09T06:47:40;9.10;;;1.83;;
67146;SDS011;54061;52.036;5.558;2022-09-09T06:50:06;13.75;;;2.10;;
67146;SDS011;54061;52.036;5.558;2022-09-09T06:52:32;11.20;;;2.03;;
67146;SDS011;54061;52.036;5.558;2022-09-09T06:54:58;9.82;;;2.00;;
67146;SDS011;54061;52.036;5.558;2022-09-09T06:57:24;10.27;;;2.05;;
67146;SDS011;54061;52.036;5.558;2022-09-09T06:59:49;9.90;;;1.70;;
67146;SDS011;54061;52.036;5.558;2022-09-09T07:02:15;7.63;;;2.25;;
67146;SDS011;54061;52.036;5.558;2022-09-09T07:04:41;6.63;;;2.00;;
67146;SDS011;54061;52.036;5.558;2022-09-09T07:07:06;8.43;;;1.60;;
67146;SDS011;54061;52.036;5.558;2022-09-09T07:09:34;11.43;;;2.45;;
67146;SDS011;54061;52.036;5.558;2022-09-09T07:12:00;8.80;;;1.83;;
67146;SDS011;54061;52.036;5.558;2022-09-09T07:14:26;8.35;;;1.88;;
67146;SDS011;54061;52.036;5.558;2022-09-09T07:16:52;9.10;;;2.35;;
67146;SDS011;54061;52.036;5.558;2022-09-09T07:19:17;8.95;;;2.00;;
67146;SDS011;54061;52.036;5.558;2022-09-09T07:21:43;10.07;;;1.90;;
67146;SDS011;54061;52.036;5.558;2022-09-09T07:24:09;12.05;;;2.08;;
67146;SDS011;54061;52.036;5.558;2022-09-09T07:26:36;9.05;;;1.50;;
67146;SDS011;54061;52.036;5.558;2022-09-09T07:29:03;10.80;;;2.03;;
67146;SDS011;54061;52.036;5.558;2022-09-09T07:31:29;7.78;;;1.80;;
67146;SDS011;54061;52.036;5.558;2022-09-09T07:34:00;10.68;;;2.10;;
67146;SDS011;54061;52.036;5.558;2022-09-09T07:36:28;9.70;;;1.90;;
67146;SDS011;54061;52.036;5.558;2022-09-09T07:39:01;7.10;;;1.70;;
67146;SDS011;54061;52.036;5.558;2022-09-09T07:41:33;9.85;;;1.52;;
67146;SDS011;54061;52.036;5.558;2022-09-09T07:44:20;8.27;;;1.73;;
67146;SDS011;54061;52.036;5.558;2022-09-09T07:46:47;8.65;;;2.00;;
67146;SDS011;54061;52.036;5.558;2022-09-09T07:49:14;15.43;;;1.92;;
67146;SDS011;54061;52.036;5.558;2022-09-09T07:51:41;4.03;;;1.63;;
67146;SDS011;54061;52.036;5.558;2022-09-09T07:54:09;12.48;;;3.85;;
67146;SDS011;54061;52.036;5.558;2022-09-09T07:56:36;8.40;;;1.60;;
67146;SDS011;54061;52.036;5.558;2022-09-09T07:59:02;7.90;;;1.77;;
67146;SDS011;54061;52.036;5.558;2022-09-09T08:01:38;8.43;;;1.70;;
67146;SDS011;54061;52.036;5.558;2022-09-09T08:04:07;8.90;;;1.65;;
67146;SDS011;54061;52.036;5.558;2022-09-09T08:06:35;9.15;;;1.75;;
67146;SDS011;54061;52.036;5.558;2022-09-09T08:09:05;7.18;;;1.85;;
67146;SDS011;54061;52.036;5.558;2022-09-09T08:11:31;11.40;;;2.10;;
67146;SDS011;54061;52.036;5.558;2022-09-09T08:13:58;11.30;;;1.77;;
67146;SDS011;54061;52.036;5.558;2022-09-09T08:16:28;9.48;;;1.85;;
67146;SDS011;54061;52.036;5.558;2022-09-09T08:18:56;8.15;;;1.80;;
67146;SDS011;54061;52.036;5.558;2022-09-09T08:21:26;5.63;;;1.70;;
67146;SDS011;54061;52.036;5.558;2022-09-09T08:23:54;13.30;;;2.30;;
67146;SDS011;54061;52.036;5.558;2022-09-09T08:26:21;8.65;;;1.70;;
67146;SDS011;54061;52.036;5.558;2022-09-09T08:28:52;10.07;;;1.98;;
67146;SDS011;54061;52.036;5.558;2022-09-09T08:34:07;7.90;;;1.55;;
67146;SDS011;54061;52.036;5.558;2022-09-09T08:36:35;17.90;;;2.35;;
67146;SDS011;54061;52.036;5.558;2022-09-09T08:39:04;7.68;;;1.65;;
67146;SDS011;54061;52.036;5.558;2022-09-09T08:44:47;10.15;;;1.70;;
67146;SDS011;54061;52.036;5.558;2022-09-09T08:50:19;9.05;;;1.63;;
67146;SDS011;54061;52.036;5.558;2022-09-09T08:52:56;6.28;;;1.55;;
67146;SDS011;54061;52.036;5.558;2022-09-09T08:55:45;12.63;;;1.88;;
67146;SDS011;54061;52.036;5.558;2022-09-09T08:58:23;14.50;;;1.85;;
67146;SDS011;54061;52.036;5.558;2022-09-09T09:06:30;8.95;;;2.05;;
67146;SDS011;54061;52.036;5.558;2022-09-09T09:12:26;7.88;;;1.77;;
67146;SDS011;54061;52.036;5.558;2022-09-09T09:14:54;8.38;;;1.58;;
67146;SDS011;54061;52.036;5.558;2022-09-09T09:17:23;7.90;;;1.33;;
67146;SDS011;54061;52.036;5.558;2022-09-09T09:19:52;6.03;;;1.10;;
67146;SDS011;54061;52.036;5.558;2022-09-09T09:22:22;9.65;;;1.95;;
67146;SDS011;54061;52.036;5.558;2022-09-09T09:30:39;10.98;;;1.42;;
67146;SDS011;54061;52.036;5.558;2022-09-09T09:33:25;9.13;;;1.77;;
67146;SDS011;54061;52.036;5.558;2022-09-09T09:36:11;4.68;;;1.48;;
67146;SDS011;54061;52.036;5.558;2022-09-09T09:38:40;10.35;;;1.67;;
67146;SDS011;54061;52.036;5.558;2022-09-09T09:41:28;7.85;;;1.70;;
67146;SDS011;54061;52.036;5.558;2022-09-09T09:43:57;10.52;;;2.05;;
67146;SDS011;54061;52.036;5.558;2022-09-09T09:46:23;10.00;;;1.85;;
67146;SDS011;54061;52.036;5.558;2022-09-09T09:48:57;9.80;;;1.88;;
67146;SDS011;54061;52.036;5.558;2022-09-09T09:51:23;10.55;;;1.63;;
67146;SDS011;54061;52.036;5.558;2022-09-09T09:53:49;5.03;;;1.58;;
67146;SDS011;54061;52.036;5.558;2022-09-09T09:56:17;10.57;;;1.95;;
67146;SDS011;54061;52.036;5.558;2022-09-09T09:58:52;8.57;;;1.85;;
67146;SDS011;54061;52.036;5.558;2022-09-09T10:01:29;15.10;;;1.77;;
67146;SDS011;54061;52.036;5.558;2022-09-09T10:04:02;13.35;;;2.58;;
67146;SDS011;54061;52.036;5.558;2022-09-09T10:06:41;15.02;;;1.73;;
67146;SDS011;54061;52.036;5.558;2022-09-09T10:09:26;11.07;;;2.05;;
67146;SDS011;54061;52.036;5.558;2022-09-09T10:22:35;8.32;;;1.90;;
67146;SDS011;54061;52.036;5.558;2022-09-09T10:33:10;7.65;;;1.35;;
67146;SDS011;54061;52.036;5.558;2022-09-09T10:35:58;10.52;;;1.67;;
67146;SDS011;54061;52.036;5.558;2022-09-09T10:38:42;9.40;;;2.08;;
67146;SDS011;54061;52.036;5.558;2022-09-09T10:41:13;10.27;;;1.92;;
67146;SDS011;54061;52.036;5.558;2022-09-09T10:44:02;9.52;;;1.50;;
67146;SDS011;54061;52.036;5.558;2022-09-09T10:55:13;14.07;;;2.80;;
67146;SDS011;54061;52.036;5.558;2022-09-09T10:57:46;10.60;;;2.17;;
67146;SDS011;54061;52.036;5.558;2022-09-09T11:00:15;7.95;;;1.80;;
67146;SDS011;54061;52.036;5.558;2022-09-09T11:02:56;5.30;;;1.52;;
67146;SDS011;54061;52.036;5.558;2022-09-09T11:05:26;6.45;;;2.00;;
67146;SDS011;54061;52.036;5.558;2022-09-09T11:08:10;6.28;;;1.70;;
67146;SDS011;54061;52.036;5.558;2022-09-09T11:10:42;6.93;;;1.83;;
67146;SDS011;54061;52.036;5.558;2022-09-09T11:19:26;8.95;;;1.95;;
67146;SDS011;54061;52.036;5.558;2022-09-09T11:38:31;5.97;;;1.92;;
67146;SDS011;54061;52.036;5.558;2022-09-09T11:41:07;8.63;;;2.42;;
67146;SDS011;54061;52.036;5.558;2022-09-09T11:43:39;11.95;;;2.78;;
67146;SDS011;54061;52.036;5.558;2022-09-09T11:46:19;6.35;;;2.00;;
67146;SDS011;54061;52.036;5.558;2022-09-09T11:48:58;7.57;;;2.30;;
67146;SDS011;54061;52.036;5.558;2022-09-09T11:51:29;10.68;;;3.17;;
67146;SDS011;54061;52.036;5.558;2022-09-09T11:56:28;6.70;;;1.30;;
67146;SDS011;54061;52.036;5.558;2022-09-09T11:59:05;6.47;;;1.95;;
67146;SDS011;54061;52.036;5.558;2022-09-09T12:01:44;8.45;;;1.85;;
67146;SDS011;54061;52.036;5.558;2022-09-09T12:09:42;7.03;;;1.38;;
67146;SDS011;54061;52.036;5.558;2022-09-09T12:14:43;7.28;;;1.63;;
67146;SDS011;54061;52.036;5.558;2022-09-09T12:17:25;4.97;;;1.63;;
67146;SDS011;54061;52.036;5.558;2022-09-09T12:25:55;8.68;;;1.92;;
67146;SDS011;54061;52.036;5.558;2022-09-09T12:28:47;5.63;;;1.98;;
67146;SDS011;54061;52.036;5.558;2022-09-09T12:31:39;7.38;;;3.13;;
67146;SDS011;54061;52.036;5.558;2022-09-09T12:34:14;4.72;;;1.70;;
67146;SDS011;54061;52.036;5.558;2022-09-09T12:37:02;3.20;;;1.48;;
67146;SDS011;54061;52.036;5.558;2022-09-09T12:39:55;6.43;;;1.45;;
67146;SDS011;54061;52.036;5.558;2022-09-09T12:42:23;6.97;;;1.52;;
67146;SDS011;54061;52.036;5.558;2022-09-09T12:44:52;6.90;;;2.08;;
67146;SDS011;54061;52.036;5.558;2022-09-09T12:47:19;11.02;;;2.00;;
67146;SDS011;54061;52.036;5.558;2022-09-09T12:49:48;5.80;;;1.60;;
67146;SDS011;54061;52.036;5.558;2022-09-09T12:52:18;6.50;;;1.92;;
67146;SDS011;54061;52.036;5.558;2022-09-09T12:54:58;8.77;;;2.08;;
67146;SDS011;54061;52.036;5.558;2022-09-09T12:57:26;5.70;;;1.73;;
67146;SDS011;54061;52.036;5.558;2022-09-09T13:00:07;8.75;;;1.75;;
67146;SDS011;54061;52.036;5.558;2022-09-09T13:03:01;8.07;;;1.60;;
67146;SDS011;54061;52.036;5.558;2022-09-09T13:05:33;6.80;;;1.65;;
67146;SDS011;54061;52.036;5.558;2022-09-09T13:08:02;7.47;;;1.85;;
67146;SDS011;54061;52.036;5.558;2022-09-09T13:10:29;8.98;;;1.60;;
67146;SDS011;54061;52.036;5.558;2022-09-09T13:12:58;5.25;;;1.60;;
67146;SDS011;54061;52.036;5.558;2022-09-09T13:15:25;5.22;;;1.42;;
67146;SDS011;54061;52.036;5.558;2022-09-09T13:17:54;3.05;;;1.27;;
67146;SDS011;54061;52.036;5.558;2022-09-09T13:20:22;6.07;;;1.70;;
67146;SDS011;54061;52.036;5.558;2022-09-09T13:22:49;5.57;;;1.80;;
67146;SDS011;54061;52.036;5.558;2022-09-09T13:25:19;7.22;;;1.60;;
67146;SDS011;54061;52.036;5.558;2022-09-09T13:27:58;6.53;;;1.70;;
67146;SDS011;54061;52.036;5.558;2022-09-09T13:30:31;10.35;;;1.90;;
67146;SDS011;54061;52.036;5.558;2022-09-09T13:35:28;6.03;;;1.58;;
67146;SDS011;54061;52.036;5.558;2022-09-09T13:37:54;4.05;;;1.70;;
67146;SDS011;54061;52.036;5.558;2022-09-09T13:40:20;8.50;;;1.92;;
67146;SDS011;54061;52.036;5.558;2022-09-09T13:42:50;5.88;;;1.42;;
67146;SDS011;54061;52.036;5.558;2022-09-09T13:45:19;5.75;;;1.90;;
67146;SDS011;54061;52.036;5.558;2022-09-09T13:47:48;6.10;;;1.25;;
67146;SDS011;54061;52.036;5.558;2022-09-09T13:52:49;2.13;;;1.42;;
67146;SDS011;54061;52.036;5.558;2022-09-09T13:55:18;7.10;;;1.40;;
67146;SDS011;54061;52.036;5.558;2022-09-09T13:57:50;9.73;;;1.83;;
67146;SDS011;54061;52.036;5.558;2022-09-09T14:00:20;6.22;;;1.50;;
67146;SDS011;54061;52.036;5.558;2022-09-09T14:02:47;3.97;;;1.63;;
67146;SDS011;54061;52.036;5.558;2022-09-09T14:05:14;7.25;;;1.48;;
67146;SDS011;54061;52.036;5.558;2022-09-09T14:07:41;4.75;;;1.40;;
67146;SDS011;54061;52.036;5.558;2022-09-09T14:10:08;14.13;;;1.70;;
67146;SDS011;54061;52.036;5.558;2022-09-09T14:12:34;9.38;;;1.60;;
67146;SDS011;54061;52.036;5.558;2022-09-09T14:15:01;5.45;;;1.15;;
67146;SDS011;54061;52.036;5.558;2022-09-09T14:17:27;7.13;;;1.35;;
67146;SDS011;54061;52.036;5.558;2022-09-09T14:19:55;2.40;;;1.00;;
67146;SDS011;54061;52.036;5.558;2022-09-09T14:22:21;4.70;;;1.60;;
67146;SDS011;54061;52.036;5.558;2022-09-09T14:24:47;4.30;;;1.58;;
67146;SDS011;54061;52.036;5.558;2022-09-09T14:27:13;5.32;;;1.58;;
67146;SDS011;54061;52.036;5.558;2022-09-09T14:29:38;6.25;;;1.48;;
67146;SDS011;54061;52.036;5.558;2022-09-09T14:32:04;5.20;;;1.55;;
67146;SDS011;54061;52.036;5.558;2022-09-09T14:34:29;5.90;;;1.60;;
67146;SDS011;54061;52.036;5.558;2022-09-09T14:36:57;6.25;;;1.58;;
67146;SDS011;54061;52.036;5.558;2022-09-09T14:39:23;7.65;;;1.48;;
67146;SDS011;54061;52.036;5.558;2022-09-09T14:41:48;6.07;;;1.40;;
67146;SDS011;54061;52.036;5.558;2022-09-09T14:44:14;2.03;;;1.10;;
67146;SDS011;54061;52.036;5.558;2022-09-09T14:46:40;8.50;;;1.60;;
67146;SDS011;54061;52.036;5.558;2022-09-09T14:49:07;4.80;;;1.60;;
67146;SDS011;54061;52.036;5.558;2022-09-09T14:51:32;5.97;;;1.60;;
67146;SDS011;54061;52.036;5.558;2022-09-09T14:53:59;5.70;;;1.52;;
67146;SDS011;54061;52.036;5.558;2022-09-09T14:56:25;5.20;;;1.52;;
67146;SDS011;54061;52.036;5.558;2022-09-09T14:58:53;4.28;;;1.17;;
67146;SDS011;54061;52.036;5.558;2022-09-09T15:01:20;9.88;;;1.38;;
67146;SDS011;54061;52.036;5.558;2022-09-09T15:03:50;4.47;;;1.30;;
67146;SDS011;54061;52.036;5.558;2022-09-09T15:06:17;4.32;;;1.40;;
67146;SDS011;54061;52.036;5.558;2022-09-09T15:08:44;6.30;;;1.52;;
67146;SDS011;54061;52.036;5.558;2022-09-09T15:11:11;5.38;;;1.35;;
67146;SDS011;54061;52.036;5.558;2022-09-09T15:13:38;6.68;;;1.42;;
67146;SDS011;54061;52.036;5.558;2022-09-09T15:16:17;3.33;;;1.20;;
67146;SDS011;54061;52.036;5.558;2022-09-09T15:18:44;5.72;;;1.40;;
67146;SDS011;54061;52.036;5.558;2022-09-09T15:21:11;2.67;;;0.90;;
67146;SDS011;54061;52.036;5.558;2022-09-09T15:23:38;4.07;;;0.93;;
67146;SDS011;54061;52.036;5.558;2022-09-09T15:26:04;3.33;;;1.17;;
67146;SDS011;54061;52.036;5.558;2022-09-09T15:28:31;5.60;;;1.30;;
67146;SDS011;54061;52.036;5.558;2022-09-09T15:31:04;3.80;;;1.10;;
67146;SDS011;54061;52.036;5.558;2022-09-09T15:33:50;3.63;;;1.10;;
67146;SDS011;54061;52.036;5.558;2022-09-09T15:36:24;3.08;;;1.08;;
67146;SDS011;54061;52.036;5.558;2022-09-09T15:38:51;4.15;;;1.20;;
67146;SDS011;54061;52.036;5.558;2022-09-09T15:41:18;8.18;;;1.77;;
67146;SDS011;54061;52.036;5.558;2022-09-09T15:43:49;7.63;;;1.20;;
67146;SDS011;54061;52.036;5.558;2022-09-09T15:49:05;4.97;;;1.13;;
67146;SDS011;54061;52.036;5.558;2022-09-09T15:51:35;6.30;;;1.40;;
67146;SDS011;54061;52.036;5.558;2022-09-09T15:54:02;3.90;;;1.38;;
67146;SDS011;54061;52.036;5.558;2022-09-09T15:56:29;2.67;;;0.95;;
67146;SDS011;54061;52.036;5.558;2022-09-09T15:58:58;3.08;;;1.00;;
67146;SDS011;54061;52.036;5.558;2022-09-09T16:01:25;2.13;;;0.93;;
67146;SDS011;54061;52.036;5.558;2022-09-09T16:03:52;2.63;;;0.90;;
67146;SDS011;54061;52.036;5.558;2022-09-09T16:06:18;8.23;;;1.80;;
67146;SDS011;54061;52.036;5.558;2022-09-09T16:08:46;2.65;;;0.63;;
67146;SDS011;54061;52.036;5.558;2022-09-09T16:11:19;3.38;;;0.88;;
67146;SDS011;54061;52.036;5.558;2022-09-09T16:13:47;2.55;;;0.85;;
67146;SDS011;54061;52.036;5.558;2022-09-09T16:16:14;2.30;;;0.98;;
67146;SDS011;54061;52.036;5.558;2022-09-09T16:18:45;3.03;;;0.98;;
67146;SDS011;54061;52.036;5.558;2022-09-09T16:21:16;3.03;;;1.17;;
67146;SDS011;54061;52.036;5.558;2022-09-09T16:23:44;5.53;;;1.13;;
67146;SDS011;54061;52.036;5.558;2022-09-09T16:26:11;2.15;;;0.90;;
67146;SDS011;54061;52.036;5.558;2022-09-09T16:28:38;2.40;;;0.93;;
67146;SDS011;54061;52.036;5.558;2022-09-09T16:31:07;2.03;;;1.00;;
67146;SDS011;54061;52.036;5.558;2022-09-09T16:33:34;4.88;;;1.20;;
67146;SDS011;54061;52.036;5.558;2022-09-09T16:36:07;2.42;;;1.00;;
67146;SDS011;54061;52.036;5.558;2022-09-09T16:38:37;3.60;;;0.93;;
67146;SDS011;54061;52.036;5.558;2022-09-09T16:41:03;1.95;;;0.90;;
67146;SDS011;54061;52.036;5.558;2022-09-09T16:43:30;8.18;;;0.93;;
67146;SDS011;54061;52.036;5.558;2022-09-09T16:45:57;3.25;;;1.13;;
67146;SDS011;54061;52.036;5.558;2022-09-09T16:48:25;4.28;;;1.30;;
67146;SDS011;54061;52.036;5.558;2022-09-09T16:50:51;2.53;;;1.33;;
67146;SDS011;54061;52.036;5.558;2022-09-09T16:53:17;3.53;;;1.25;;
67146;SDS011;54061;52.036;5.558;2022-09-09T16:55:43;2.28;;;1.13;;
67146;SDS011;54061;52.036;5.558;2022-09-09T16:58:12;4.07;;;1.10;;
67146;SDS011;54061;52.036;5.558;2022-09-09T17:00:37;5.60;;;1.33;;
67146;SDS011;54061;52.036;5.558;2022-09-09T17:03:03;2.75;;;1.00;;
67146;SDS011;54061;52.036;5.558;2022-09-09T17:05:29;4.85;;;1.15;;
67146;SDS011;54061;52.036;5.558;2022-09-09T17:07:55;3.63;;;1.20;;
67146;SDS011;54061;52.036;5.558;2022-09-09T17:10:22;5.68;;;1.65;;
67146;SDS011;54061;52.036;5.558;2022-09-09T17:12:49;6.88;;;1.52;;
67146;SDS011;54061;52.036;5.558;2022-09-09T17:15:14;3.72;;;1.60;;
67146;SDS011;54061;52.036;5.558;2022-09-09T17:17:41;5.28;;;1.50;;